sensor_id;sensor_type;location;lat;lon;timestamp;pressure;altitude;pressure_sealevel;temperature;humidity
58973;BME280;44750;52.040;7.472;2023-01-31T00:02:43;101002.75;;;4.03;81.52
58973;BME280;44750;52.040;7.472;2023-01-31T00:07:43;101003.59;;;4.03;81.34
58973;BME280;44750;52.040;7.472;2023-01-31T00:12:43;100993.81;;;3.89;81.50
58973;BME280;44750;52.040;7.472;2023-01-31T00:17:44;101017.06;;;3.89;81.07
58973;BME280;44750;52.040;7.472;2023-01-31T00:22:44;101007.72;;;3.81;81.17
58973;BME280;44750;52.040;7.472;2023-01-31T00:27:44;100990.44;;;3.73;80.58
58973;BME280;44750;52.040;7.472;2023-01-31T00:32:44;100983.91;;;3.64;79.97
58973;BME280;44750;52.040;7.472;2023-01-31T00:37:44;100995.91;;;3.71;78.70
58973;BME280;44750;52.040;7.472;2023-01-31T00:42:45;100968.34;;;3.56;78.30
58973;BME280;44750;52.040;7.472;2023-01-31T00:47:45;100975.91;;;3.49;77.44
58973;BME280;44750;52.040;7.472;2023-01-31T00:52:45;100986.97;;;3.58;75.47
58973;BME280;44750;52.040;7.472;2023-01-31T00:57:45;100989.09;;;3.53;75.29
58973;BME280;44750;52.040;7.472;2023-01-31T01:02:46;100996.16;;;3.54;74.33
58973;BME280;44750;52.040;7.472;2023-01-31T01:07:46;101008.44;;;3.71;71.86
58973;BME280;44750;52.040;7.472;2023-01-31T01:12:46;101022.56;;;3.73;71.39
58973;BME280;44750;52.040;7.472;2023-01-31T01:17:46;100992.72;;;3.51;71.78
58973;BME280;44750;52.040;7.472;2023-01-31T01:22:47;100999.78;;;3.53;70.17
58973;BME280;44750;52.040;7.472;2023-01-31T01:27:47;100990.84;;;3.39;70.35
58973;BME280;44750;52.040;7.472;2023-01-31T01:32:47;101007.84;;;3.38;69.20
58973;BME280;44750;52.040;7.472;2023-01-31T01:37:47;101001.97;;;3.18;68.33
58973;BME280;44750;52.040;7.472;2023-01-31T01:42:48;101011.72;;;3.20;66.89
58973;BME280;44750;52.040;7.472;2023-01-31T01:47:54;100999.50;;;3.15;66.13
58973;BME280;44750;52.040;7.472;2023-01-31T01:53:01;101016.91;;;3.08;64.89
58973;BME280;44750;52.040;7.472;2023-01-31T01:58:10;101031.44;;;3.04;63.16
58973;BME280;44750;52.040;7.472;2023-01-31T02:03:13;101058.44;;;3.14;61.30
58973;BME280;44750;52.040;7.472;2023-01-31T02:08:17;101060.34;;;3.12;60.81
58973;BME280;44750;52.040;7.472;2023-01-31T02:13:19;101066.78;;;3.09;60.04
58973;BME280;44750;52.040;7.472;2023-01-31T02:18:21;101079.38;;;3.07;59.34
58973;BME280;44750;52.040;7.472;2023-01-31T02:23:43;101079.75;;;3.01;58.48
58973;BME280;44750;52.040;7.472;2023-01-31T02:29:12;101080.78;;;2.98;57.02
58973;BME280;44750;52.040;7.472;2023-01-31T02:39:42;101089.88;;;3.10;52.54
58973;BME280;44750;52.040;7.472;2023-01-31T02:44:51;101077.47;;;3.09;51.54
58973;BME280;44750;52.040;7.472;2023-01-31T02:50:03;101091.81;;;3.08;50.41
58973;BME280;44750;52.040;7.472;2023-01-31T02:55:29;101101.94;;;3.17;48.60
58973;BME280;44750;52.040;7.472;2023-01-31T03:00:33;101094.06;;;3.14;47.95
58973;BME280;44750;52.040;7.472;2023-01-31T03:05:34;101099.06;;;3.21;46.80
58973;BME280;44750;52.040;7.472;2023-01-31T03:10:59;101095.44;;;3.22;46.29
58973;BME280;44750;52.040;7.472;2023-01-31T03:16:20;101087.78;;;3.30;45.58
58973;BME280;44750;52.040;7.472;2023-01-31T03:21:26;101084.78;;;3.34;44.67
58973;BME280;44750;52.040;7.472;2023-01-31T03:26:31;101078.50;;;3.35;45.24
58973;BME280;44750;52.040;7.472;2023-01-31T03:31:36;101050.69;;;3.38;44.68
58973;BME280;44750;52.040;7.472;2023-01-31T03:47:16;101054.13;;;3.40;45.46
58973;BME280;44750;52.040;7.472;2023-01-31T03:52:28;101052.19;;;3.42;45.18
58973;BME280;44750;52.040;7.472;2023-01-31T03:57:34;101052.75;;;3.47;45.40
58973;BME280;44750;52.040;7.472;2023-01-31T04:02:36;101034.22;;;3.44;46.36
58973;BME280;44750;52.040;7.472;2023-01-31T04:07:37;101028.38;;;3.52;46.60
58973;BME280;44750;52.040;7.472;2023-01-31T04:12:37;101032.38;;;3.59;47.03
58973;BME280;44750;52.040;7.472;2023-01-31T04:17:37;101013.94;;;3.55;48.07
58973;BME280;44750;52.040;7.472;2023-01-31T04:22:38;101012.00;;;3.57;48.22
58973;BME280;44750;52.040;7.472;2023-01-31T04:27:38;101004.66;;;3.60;48.90
58973;BME280;44750;52.040;7.472;2023-01-31T04:32:38;101019.56;;;3.64;49.28
58973;BME280;44750;52.040;7.472;2023-01-31T04:37:38;101013.97;;;3.67;49.51
58973;BME280;44750;52.040;7.472;2023-01-31T04:42:39;101020.84;;;3.72;49.88
58973;BME280;44750;52.040;7.472;2023-01-31T04:47:39;101023.97;;;3.78;49.19
58973;BME280;44750;52.040;7.472;2023-01-31T04:52:39;101016.50;;;3.83;48.89
58973;BME280;44750;52.040;7.472;2023-01-31T04:57:40;100997.75;;;3.83;48.24
58973;BME280;44750;52.040;7.472;2023-01-31T05:02:40;101004.63;;;3.88;47.46
58973;BME280;44750;52.040;7.472;2023-01-31T05:07:40;100978.84;;;3.87;45.99
58973;BME280;44750;52.040;7.472;2023-01-31T05:12:42;100987.66;;;4.01;43.36
58973;BME280;44750;52.040;7.472;2023-01-31T05:17:42;100975.09;;;4.02;41.94
58973;BME280;44750;52.040;7.472;2023-01-31T05:22:46;100979.09;;;4.09;39.98
58973;BME280;44750;52.040;7.472;2023-01-31T05:27:46;100970.94;;;4.11;38.74
58973;BME280;44750;52.040;7.472;2023-01-31T05:32:47;100969.97;;;4.12;37.59
58973;BME280;44750;52.040;7.472;2023-01-31T05:37:47;100983.59;;;4.22;36.13
58973;BME280;44750;52.040;7.472;2023-01-31T05:42:54;100975.44;;;4.23;35.67
58973;BME280;44750;52.040;7.472;2023-01-31T05:47:55;100980.28;;;4.31;34.71
58973;BME280;44750;52.040;7.472;2023-01-31T05:52:57;100961.63;;;4.29;34.94
58973;BME280;44750;52.040;7.472;2023-01-31T05:57:58;100960.03;;;4.27;34.14
58973;BME280;44750;52.040;7.472;2023-01-31T06:02:58;100966.34;;;4.26;34.25
58973;BME280;44750;52.040;7.472;2023-01-31T06:07:58;100968.91;;;4.27;33.18
58973;BME280;44750;52.040;7.472;2023-01-31T06:12:59;100971.59;;;4.27;32.87
58973;BME280;44750;52.040;7.472;2023-01-31T06:17:59;100984.16;;;4.27;32.78
58973;BME280;44750;52.040;7.472;2023-01-31T06:22:59;100987.56;;;4.29;33.14
58973;BME280;44750;52.040;7.472;2023-01-31T06:28:00;100974.94;;;4.31;33.25
58973;BME280;44750;52.040;7.472;2023-01-31T06:33:01;100965.16;;;4.30;34.13
58973;BME280;44750;52.040;7.472;2023-01-31T06:38:01;100981.34;;;4.28;34.98
58973;BME280;44750;52.040;7.472;2023-01-31T06:43:01;100963.53;;;4.14;35.50
58973;BME280;44750;52.040;7.472;2023-01-31T06:48:02;100957.22;;;4.15;36.38
58973;BME280;44750;52.040;7.472;2023-01-31T06:53:02;100962.91;;;4.24;36.10
58973;BME280;44750;52.040;7.472;2023-01-31T06:58:04;100973.88;;;4.33;34.82
58973;BME280;44750;52.040;7.472;2023-01-31T07:03:04;100953.69;;;4.28;35.09
58973;BME280;44750;52.040;7.472;2023-01-31T07:08:04;100967.44;;;4.36;34.21
58973;BME280;44750;52.040;7.472;2023-01-31T07:13:04;100977.94;;;4.39;33.76
58973;BME280;44750;52.040;7.472;2023-01-31T07:18:05;100976.88;;;4.42;33.20
58973;BME280;44750;52.040;7.472;2023-01-31T07:23:05;100957.34;;;4.40;32.45
58973;BME280;44750;52.040;7.472;2023-01-31T07:28:05;100949.63;;;4.35;31.83
58973;BME280;44750;52.040;7.472;2023-01-31T07:33:05;100955.41;;;4.42;30.67
58973;BME280;44750;52.040;7.472;2023-01-31T07:38:06;100956.06;;;4.45;30.25
58973;BME280;44750;52.040;7.472;2023-01-31T07:43:06;100958.75;;;4.45;30.06
58973;BME280;44750;52.040;7.472;2023-01-31T07:48:06;100946.72;;;4.51;29.63
58973;BME280;44750;52.040;7.472;2023-01-31T07:53:06;100950.06;;;4.55;29.73
58973;BME280;44750;52.040;7.472;2023-01-31T07:58:07;100939.41;;;4.53;29.74
58973;BME280;44750;52.040;7.472;2023-01-31T08:03:22;100941.56;;;4.61;28.98
58973;BME280;44750;52.040;7.472;2023-01-31T08:08:22;100913.25;;;4.44;28.72
58973;BME280;44750;52.040;7.472;2023-01-31T08:13:23;100933.00;;;4.56;26.23
58973;BME280;44750;52.040;7.472;2023-01-31T08:18:23;100940.84;;;4.59;24.41
58973;BME280;44750;52.040;7.472;2023-01-31T08:23:23;100943.16;;;4.50;22.99
58973;BME280;44750;52.040;7.472;2023-01-31T08:28:23;100935.59;;;4.57;21.97
58973;BME280;44750;52.040;7.472;2023-01-31T08:33:24;100919.69;;;4.54;20.39
58973;BME280;44750;52.040;7.472;2023-01-31T08:38:24;100950.50;;;4.61;18.65
58973;BME280;44750;52.040;7.472;2023-01-31T08:43:24;100941.69;;;4.59;17.94
58973;BME280;44750;52.040;7.472;2023-01-31T08:48:25;100920.47;;;4.56;17.86
58973;BME280;44750;52.040;7.472;2023-01-31T08:53:25;100931.25;;;4.67;17.62
58973;BME280;44750;52.040;7.472;2023-01-31T08:58:25;100928.88;;;4.76;17.96
58973;BME280;44750;52.040;7.472;2023-01-31T09:03:25;100911.72;;;4.78;20.01
58973;BME280;44750;52.040;7.472;2023-01-31T09:08:26;100913.19;;;4.82;21.95
58973;BME280;44750;52.040;7.472;2023-01-31T09:13:27;100891.66;;;4.84;25.17
58973;BME280;44750;52.040;7.472;2023-01-31T09:18:28;100893.88;;;4.90;27.24
58973;BME280;44750;52.040;7.472;2023-01-31T09:23:28;100873.06;;;4.94;29.89
58973;BME280;44750;52.040;7.472;2023-01-31T09:28:28;100856.00;;;4.95;32.00
58973;BME280;44750;52.040;7.472;2023-01-31T09:33:30;100800.88;;;4.91;34.57
58973;BME280;44750;52.040;7.472;2023-01-31T09:38:31;100807.59;;;4.96;35.39
58973;BME280;44750;52.040;7.472;2023-01-31T09:43:44;100780.13;;;4.93;36.68
58973;BME280;44750;52.040;7.472;2023-01-31T09:48:49;100794.22;;;5.08;37.87
58973;BME280;44750;52.040;7.472;2023-01-31T09:53:54;100793.25;;;5.09;39.23
58973;BME280;44750;52.040;7.472;2023-01-31T09:59:19;100788.06;;;5.18;39.67
58973;BME280;44750;52.040;7.472;2023-01-31T10:09:52;100773.53;;;5.21;41.71
58973;BME280;44750;52.040;7.472;2023-01-31T10:14:57;100741.69;;;5.16;42.17
58973;BME280;44750;52.040;7.472;2023-01-31T10:20:06;100738.09;;;5.40;42.60
58973;BME280;44750;52.040;7.472;2023-01-31T10:25:27;100732.97;;;5.48;43.98
58973;BME280;44750;52.040;7.472;2023-01-31T10:30:35;100711.38;;;5.50;44.81
58973;BME280;44750;52.040;7.472;2023-01-31T10:35:41;100712.47;;;5.47;46.19
58973;BME280;44750;52.040;7.472;2023-01-31T10:40:47;100684.66;;;5.48;46.92
58973;BME280;44750;52.040;7.472;2023-01-31T10:45:49;100671.72;;;5.53;46.49
58973;BME280;44750;52.040;7.472;2023-01-31T10:56:36;100670.88;;;5.64;46.57
58973;BME280;44750;52.040;7.472;2023-01-31T11:01:38;100649.88;;;5.58;46.86
58973;BME280;44750;52.040;7.472;2023-01-31T11:06:38;100633.75;;;5.58;46.48
58973;BME280;44750;52.040;7.472;2023-01-31T11:11:55;100646.31;;;5.69;45.17
58973;BME280;44750;52.040;7.472;2023-01-31T11:17:02;100623.72;;;5.72;44.88
58973;BME280;44750;52.040;7.472;2023-01-31T11:22:04;100630.94;;;5.71;44.82
58973;BME280;44750;52.040;7.472;2023-01-31T11:27:10;100632.66;;;5.72;44.05
58973;BME280;44750;52.040;7.472;2023-01-31T11:32:28;100622.28;;;5.67;44.03
58973;BME280;44750;52.040;7.472;2023-01-31T11:37:31;100634.13;;;5.76;43.30
58973;BME280;44750;52.040;7.472;2023-01-31T11:42:32;100620.06;;;5.73;43.47
58973;BME280;44750;52.040;7.472;2023-01-31T11:47:47;100611.41;;;5.80;42.89
58973;BME280;44750;52.040;7.472;2023-01-31T11:58:52;100590.16;;;5.77;42.66
58973;BME280;44750;52.040;7.472;2023-01-31T12:03:47;100588.94;;;5.81;42.06
58973;BME280;44750;52.040;7.472;2023-01-31T12:08:53;100578.31;;;5.80;40.60
58973;BME280;44750;52.040;7.472;2023-01-31T12:34:49;100641.66;;;5.82;24.64
58973;BME280;44750;52.040;7.472;2023-01-31T12:46:01;100716.66;;;5.85;13.31
58973;BME280;44750;52.040;7.472;2023-01-31T12:51:28;100743.03;;;5.80;8.28
58973;BME280;44750;52.040;7.472;2023-01-31T12:56:54;100778.56;;;5.84;2.74
58973;BME280;44750;52.040;7.472;2023-01-31T13:07:42;100834.84;;;5.85;0.00
58973;BME280;44750;52.040;7.472;2023-01-31T13:12:45;100879.06;;;5.93;0.00
58973;BME280;44750;52.040;7.472;2023-01-31T13:17:47;100896.47;;;6.00;0.00
58973;BME280;44750;52.040;7.472;2023-01-31T13:22:55;100886.31;;;6.03;0.00
58973;BME280;44750;52.040;7.472;2023-01-31T13:33:36;100917.53;;;6.17;0.00
58973;BME280;44750;52.040;7.472;2023-01-31T13:38:42;100934.38;;;6.19;0.00
58973;BME280;44750;52.040;7.472;2023-01-31T13:43:42;100928.03;;;6.21;0.00
58973;BME280;44750;52.040;7.472;2023-01-31T13:49:08;100958.09;;;6.26;0.00
58973;BME280;44750;52.040;7.472;2023-01-31T13:54:21;100960.78;;;6.26;0.00
58973;BME280;44750;52.040;7.472;2023-01-31T13:59:26;100981.31;;;6.27;0.00
58973;BME280;44750;52.040;7.472;2023-01-31T14:04:36;100986.56;;;6.28;0.00
58973;BME280;44750;52.040;7.472;2023-01-31T14:09:44;101015.56;;;6.36;0.00
58973;BME280;44750;52.040;7.472;2023-01-31T14:14:47;101039.78;;;6.47;0.00
58973;BME280;44750;52.040;7.472;2023-01-31T14:40:46;101092.41;;;6.63;0.00
58973;BME280;44750;52.040;7.472;2023-01-31T14:51:11;101126.19;;;6.78;0.00
58973;BME280;44750;52.040;7.472;2023-01-31T14:56:35;101126.09;;;6.80;0.00
58973;BME280;44750;52.040;7.472;2023-01-31T15:01:39;101120.69;;;6.80;0.00
58973;BME280;44750;52.040;7.472;2023-01-31T15:06:39;101143.34;;;6.89;0.00
58973;BME280;44750;52.040;7.472;2023-01-31T15:11:44;101153.97;;;6.90;0.00
58973;BME280;44750;52.040;7.472;2023-01-31T15:16:45;101150.19;;;6.93;0.00
58973;BME280;44750;52.040;7.472;2023-01-31T15:21:48;101185.44;;;7.01;0.00
58973;BME280;44750;52.040;7.472;2023-01-31T15:26:49;101184.09;;;6.95;0.00
58973;BME280;44750;52.040;7.472;2023-01-31T15:31:56;101174.41;;;6.93;0.00
58973;BME280;44750;52.040;7.472;2023-01-31T15:47:22;101226.25;;;7.19;0.00
58973;BME280;44750;52.040;7.472;2023-01-31T15:52:22;101214.13;;;7.13;0.00
58973;BME280;44750;52.040;7.472;2023-01-31T15:57:26;101240.34;;;7.23;0.00
58973;BME280;44750;52.040;7.472;2023-01-31T16:02:29;101242.41;;;7.30;0.00
58973;BME280;44750;52.040;7.472;2023-01-31T16:07:31;101232.53;;;7.31;0.00
58973;BME280;44750;52.040;7.472;2023-01-31T16:12:31;101233.38;;;7.31;0.00
58973;BME280;44750;52.040;7.472;2023-01-31T16:17:32;101239.78;;;7.42;0.00
58973;BME280;44750;52.040;7.472;2023-01-31T16:22:33;101236.31;;;7.40;0.00
58973;BME280;44750;52.040;7.472;2023-01-31T16:27:37;101224.69;;;7.39;0.00
58973;BME280;44750;52.040;7.472;2023-01-31T16:32:41;101181.94;;;7.23;0.00
58973;BME280;44750;52.040;7.472;2023-01-31T16:37:42;101172.28;;;7.20;0.00
58973;BME280;44750;52.040;7.472;2023-01-31T16:42:42;101156.75;;;7.24;0.00
58973;BME280;44750;52.040;7.472;2023-01-31T16:47:47;101146.59;;;7.28;0.00
58973;BME280;44750;52.040;7.472;2023-01-31T16:53:05;101148.31;;;7.51;0.00
58973;BME280;44750;52.040;7.472;2023-01-31T16:58:08;101111.59;;;7.39;0.00
58973;BME280;44750;52.040;7.472;2023-01-31T17:03:16;101089.28;;;7.48;0.00
58973;BME280;44750;52.040;7.472;2023-01-31T17:08:19;101023.94;;;7.24;0.00
58973;BME280;44750;52.040;7.472;2023-01-31T17:13:22;100984.81;;;7.08;0.00
58973;BME280;44750;52.040;7.472;2023-01-31T17:18:24;100962.91;;;7.01;0.00
58973;BME280;44750;52.040;7.472;2023-01-31T17:23:24;100973.91;;;7.21;0.00
58973;BME280;44750;52.040;7.472;2023-01-31T17:28:25;100915.06;;;7.05;0.00
58973;BME280;44750;52.040;7.472;2023-01-31T17:33:25;100925.53;;;7.31;0.00
58973;BME280;44750;52.040;7.472;2023-01-31T17:38:25;100889.78;;;7.29;0.00
58973;BME280;44750;52.040;7.472;2023-01-31T17:43:26;100870.81;;;7.30;3.61
58973;BME280;44750;52.040;7.472;2023-01-31T17:48:26;100783.47;;;6.91;7.26
58973;BME280;44750;52.040;7.472;2023-01-31T17:53:26;100798.31;;;7.17;10.18
58973;BME280;44750;52.040;7.472;2023-01-31T17:58:27;100735.88;;;6.91;13.92
58973;BME280;44750;52.040;7.472;2023-01-31T18:03:27;100751.31;;;7.10;16.69
58973;BME280;44750;52.040;7.472;2023-01-31T18:08:27;100743.78;;;7.04;19.81
58973;BME280;44750;52.040;7.472;2023-01-31T18:13:27;100663.75;;;6.85;23.90
58973;BME280;44750;52.040;7.472;2023-01-31T18:18:28;100668.56;;;7.02;31.12
58973;BME280;44750;52.040;7.472;2023-01-31T18:23:28;100593.66;;;6.86;38.68
58973;BME280;44750;52.040;7.472;2023-01-31T18:28:28;100578.41;;;6.97;46.35
58973;BME280;44750;52.040;7.472;2023-01-31T18:33:29;100537.59;;;6.92;54.91
58973;BME280;44750;52.040;7.472;2023-01-31T18:38:31;100499.91;;;6.92;61.70
58973;BME280;44750;52.040;7.472;2023-01-31T18:43:31;100472.59;;;6.86;68.70
58973;BME280;44750;52.040;7.472;2023-01-31T18:48:32;100440.09;;;6.78;75.01
58973;BME280;44750;52.040;7.472;2023-01-31T18:53:34;100398.47;;;6.73;80.58
58973;BME280;44750;52.040;7.472;2023-01-31T18:58:36;100363.03;;;6.58;84.82
58973;BME280;44750;52.040;7.472;2023-01-31T19:03:38;100374.09;;;6.64;88.43
58973;BME280;44750;52.040;7.472;2023-01-31T19:08:38;100319.69;;;6.51;91.72
58973;BME280;44750;52.040;7.472;2023-01-31T19:13:40;100352.13;;;6.59;93.23
58973;BME280;44750;52.040;7.472;2023-01-31T19:18:40;100335.25;;;6.47;95.35
58973;BME280;44750;52.040;7.472;2023-01-31T19:23:41;100327.16;;;6.47;96.76
58973;BME280;44750;52.040;7.472;2023-01-31T19:28:42;100315.44;;;6.48;97.91
58973;BME280;44750;52.040;7.472;2023-01-31T19:33:54;100318.41;;;6.45;98.61
58973;BME280;44750;52.040;7.472;2023-01-31T19:38:55;100319.78;;;6.40;98.61
58973;BME280;44750;52.040;7.472;2023-01-31T19:43:57;100304.34;;;6.32;98.52
58973;BME280;44750;52.040;7.472;2023-01-31T19:48:58;100331.22;;;6.32;98.43
58973;BME280;44750;52.040;7.472;2023-01-31T19:54:00;100323.25;;;6.21;98.12
58973;BME280;44750;52.040;7.472;2023-01-31T19:59:00;100335.97;;;6.18;97.19
58973;BME280;44750;52.040;7.472;2023-01-31T20:04:01;100338.91;;;6.15;96.46
58973;BME280;44750;52.040;7.472;2023-01-31T20:09:02;100352.78;;;6.11;96.39
58973;BME280;44750;52.040;7.472;2023-01-31T20:14:02;100346.47;;;6.00;95.90
58973;BME280;44750;52.040;7.472;2023-01-31T20:19:03;100342.72;;;5.92;95.48
58973;BME280;44750;52.040;7.472;2023-01-31T20:24:03;100344.78;;;5.99;95.51
58973;BME280;44750;52.040;7.472;2023-01-31T20:29:03;100326.16;;;5.86;96.85
58973;BME280;44750;52.040;7.472;2023-01-31T20:34:04;100322.22;;;5.91;98.27
58973;BME280;44750;52.040;7.472;2023-01-31T20:39:04;100311.25;;;5.82;99.69
58973;BME280;44750;52.040;7.472;2023-01-31T20:44:04;100295.69;;;5.76;100.00
58973;BME280;44750;52.040;7.472;2023-01-31T20:49:04;100311.94;;;5.75;100.00
58973;BME280;44750;52.040;7.472;2023-01-31T20:54:05;100311.75;;;5.66;100.00
58973;BME280;44750;52.040;7.472;2023-01-31T20:59:05;100309.19;;;5.65;100.00
58973;BME280;44750;52.040;7.472;2023-01-31T21:04:05;100310.28;;;5.62;100.00
58973;BME280;44750;52.040;7.472;2023-01-31T21:09:05;100316.06;;;5.58;100.00
58973;BME280;44750;52.040;7.472;2023-01-31T21:14:06;100308.06;;;5.46;100.00
58973;BME280;44750;52.040;7.472;2023-01-31T21:19:06;100330.75;;;5.53;100.00
58973;BME280;44750;52.040;7.472;2023-01-31T21:24:07;100330.66;;;5.44;100.00
58973;BME280;44750;52.040;7.472;2023-01-31T21:29:07;100323.31;;;5.46;100.00
58973;BME280;44750;52.040;7.472;2023-01-31T21:34:08;100330.78;;;5.42;100.00
58973;BME280;44750;52.040;7.472;2023-01-31T21:39:10;100339.56;;;5.44;100.00
58973;BME280;44750;52.040;7.472;2023-01-31T21:44:10;100343.63;;;5.39;100.00
58973;BME280;44750;52.040;7.472;2023-01-31T21:49:11;100314.19;;;5.16;100.00
58973;BME280;44750;52.040;7.472;2023-01-31T21:54:11;100348.66;;;5.32;100.00
58973;BME280;44750;52.040;7.472;2023-01-31T21:59:11;100357.06;;;5.27;100.00
58973;BME280;44750;52.040;7.472;2023-01-31T22:04:11;100379.16;;;5.31;98.33
58973;BME280;44750;52.040;7.472;2023-01-31T22:09:14;100378.41;;;5.29;97.26
58973;BME280;44750;52.040;7.472;2023-01-31T22:14:15;100395.75;;;5.25;96.28
58973;BME280;44750;52.040;7.472;2023-01-31T22:19:15;100374.69;;;5.09;95.44
58973;BME280;44750;52.040;7.472;2023-01-31T22:24:15;100393.13;;;5.13;93.62
58973;BME280;44750;52.040;7.472;2023-01-31T22:29:16;100405.31;;;5.17;92.53
58973;BME280;44750;52.040;7.472;2023-01-31T22:34:16;100383.84;;;5.17;92.00
58973;BME280;44750;52.040;7.472;2023-01-31T22:39:16;100391.88;;;5.17;91.96
58973;BME280;44750;52.040;7.472;2023-01-31T22:44:17;100375.03;;;5.15;92.16
58973;BME280;44750;52.040;7.472;2023-01-31T22:49:17;100367.97;;;5.14;92.92
58973;BME280;44750;52.040;7.472;2023-01-31T22:54:17;100354.81;;;5.11;93.20
58973;BME280;44750;52.040;7.472;2023-01-31T22:59:17;100357.00;;;5.17;93.53
58973;BME280;44750;52.040;7.472;2023-01-31T23:04:18;100321.38;;;5.15;94.76
58973;BME280;44750;52.040;7.472;2023-01-31T23:09:18;100319.66;;;5.14;96.27
58973;BME280;44750;52.040;7.472;2023-01-31T23:14:18;100305.28;;;5.15;98.13
58973;BME280;44750;52.040;7.472;2023-01-31T23:19:18;100322.13;;;5.17;100.00
58973;BME280;44750;52.040;7.472;2023-01-31T23:24:19;100301.50;;;5.18;100.00
58973;BME280;44750;52.040;7.472;2023-01-31T23:29:19;100288.59;;;5.12;100.00
58973;BME280;44750;52.040;7.472;2023-01-31T23:34:19;100262.63;;;5.12;100.00
58973;BME280;44750;52.040;7.472;2023-01-31T23:39:19;100261.66;;;5.13;100.00
58973;BME280;44750;52.040;7.472;2023-01-31T23:44:19;100242.63;;;5.05;100.00
58973;BME280;44750;52.040;7.472;2023-01-31T23:49:20;100246.78;;;5.09;100.00
58973;BME280;44750;52.040;7.472;2023-01-31T23:54:20;100242.63;;;5.05;100.00
58973;BME280;44750;52.040;7.472;2023-01-31T23:59:20;100211.47;;;4.93;100.00
